Terminal Aerodrome Forecast
Issued by NWS

Home | Current Version | Previous Version | Text Only | Print | Product List | Glossary On
Versions: 1 2 3 4 5 6 7 8 9 10 11 12
000
FTUS42 KRAH 041133
TAFRWI
TAF
KRWI 041133Z 0412/0512 04006KT P6SM FEW120
     FM041600 05004KT P6SM OVC070
     FM042000 08005KT P6SM -RA OVC050
     FM050200 10004KT 6SM -RA BR BKN015 OVC040
     FM050500 12004KT 4SM -RA BR BKN008 OVC025=

USA.gov is the U.S. government's official web portal to all federal, state and local government web resources and services.